Time;durP1;ratioP1;P1;durP2;ratioP2;P2;SDS_P1;SDS_P2;PMS_P1;PMS_P2;Temp;Humidity;BMP_temperature;BMP_pressure;BME280_temperature;BME280_humidity;BME280_pressure;Samples;Min_cycle;Max_cycle;Signal;HPM_P1;HPM_P2
2022/12/08 00:02:20;;;;;;;4.60;3.30;;;;;;;;;;5048763;28;20218;-80
2022/12/08 00:10:13;;;;;;;5.47;3.63;;;;;;;;;;5051144;28;20274;-79
2022/12/08 00:12:38;;;;;;;4.23;3.37;;;;;;;;;;5045660;28;20286;-79
2022/12/08 00:15:04;;;;;;;5.57;3.60;;;;;;;;;;5049114;28;20175;-79
2022/12/08 00:17:29;;;;;;;5.63;3.77;;;;;;;;;;5044758;28;20281;-79
2022/12/08 00:19:54;;;;;;;4.93;3.50;;;;;;;;;;5049252;28;20184;-79
2022/12/08 00:22:19;;;;;;;6.33;3.80;;;;;;;;;;5045186;28;20215;-78
2022/12/08 00:24:45;;;;;;;4.93;3.93;;;;;;;;;;5041662;28;20188;-78
2022/12/08 00:27:11;;;;;;;4.60;3.30;;;;;;;;;;5045807;28;20312;-78
2022/12/08 00:29:37;;;;;;;5.60;3.60;;;;;;;;;;5040854;28;20211;-79
2022/12/08 00:32:02;;;;;;;6.17;3.90;;;;;;;;;;5014276;28;20203;-78
2022/12/08 00:34:27;;;;;;;5.77;4.07;;;;;;;;;;5013499;28;20193;-78
2022/12/08 00:36:52;;;;;;;5.57;3.90;;;;;;;;;;5007610;28;20172;-79
2022/12/08 00:39:18;;;;;;;5.40;3.90;;;;;;;;;;5011307;28;20192;-78
2022/12/08 00:44:27;;;;;;;5.03;4.23;;;;;;;;;;5026413;28;20188;-78
2022/12/08 00:46:52;;;;;;;4.03;3.53;;;;;;;;;;5008763;28;20185;-78
2022/12/08 00:49:17;;;;;;;6.57;3.87;;;;;;;;;;5014504;28;20188;-78
2022/12/08 00:51:43;;;;;;;5.53;3.60;;;;;;;;;;5015460;28;20258;-78
2022/12/08 00:54:08;;;;;;;4.43;3.40;;;;;;;;;;5009681;28;20181;-79
2022/12/08 00:56:34;;;;;;;5.30;3.57;;;;;;;;;;5004953;28;20228;-79
2022/12/08 00:58:59;;;;;;;5.17;3.13;;;;;;;;;;5009559;28;20173;-79
2022/12/08 01:01:24;;;;;;;4.77;2.83;;;;;;;;;;5008088;28;20235;-79
2022/12/08 01:03:50;;;;;;;4.40;3.30;;;;;;;;;;5007787;28;20187;-79
2022/12/08 01:06:15;;;;;;;5.20;3.53;;;;;;;;;;5006824;28;20193;-80
2022/12/08 01:08:40;;;;;;;3.50;3.03;;;;;;;;;;5004518;28;20182;-80
2022/12/08 01:11:07;;;;;;;4.87;3.80;;;;;;;;;;5004715;28;20216;-80
2022/12/08 01:13:32;;;;;;;5.30;3.50;;;;;;;;;;5008896;28;20176;-80
2022/12/08 01:15:58;;;;;;;4.07;3.10;;;;;;;;;;5010559;28;20167;-80
2022/12/08 01:18:23;;;;;;;6.13;3.80;;;;;;;;;;5012863;28;20192;-80
2022/12/08 01:20:48;;;;;;;5.07;3.50;;;;;;;;;;5010851;28;20185;-80
2022/12/08 01:23:13;;;;;;;3.30;3.00;;;;;;;;;;5020448;28;20199;-81
2022/12/08 01:25:38;;;;;;;6.33;4.30;;;;;;;;;;5011740;28;20310;-81
2022/12/08 01:28:04;;;;;;;6.33;4.63;;;;;;;;;;5015271;28;20185;-81
2022/12/08 01:30:29;;;;;;;5.43;4.37;;;;;;;;;;5027925;28;20326;-81
2022/12/08 01:32:54;;;;;;;5.77;3.90;;;;;;;;;;5044582;28;20175;-81
2022/12/08 01:35:20;;;;;;;6.03;4.10;;;;;;;;;;5064578;28;20231;-82
2022/12/08 01:37:45;;;;;;;6.70;4.50;;;;;;;;;;5051321;28;20204;-81
2022/12/08 01:40:10;;;;;;;7.03;4.20;;;;;;;;;;5047488;28;20198;-83
2022/12/08 01:42:37;;;;;;;9.80;4.90;;;;;;;;;;5042887;28;20180;-82
2022/12/08 01:45:12;;;;;;;6.83;4.47;;;;;;;;;;5045190;28;20198;-83
2022/12/08 01:47:40;;;;;;;6.60;4.57;;;;;;;;;;5045272;28;20243;-82
2022/12/08 01:50:07;;;;;;;7.57;4.20;;;;;;;;;;5050239;28;20195;-83
2022/12/08 01:52:36;;;;;;;6.90;4.40;;;;;;;;;;5049879;28;20302;-83
2022/12/08 01:55:04;;;;;;;8.33;5.53;;;;;;;;;;5040515;28;20453;-82
2022/12/08 01:57:32;;;;;;;6.17;5.10;;;;;;;;;;5042867;28;20181;-82
2022/12/08 02:00:05;;;;;;;8.00;4.70;;;;;;;;;;5062173;28;20183;-82
2022/12/08 02:02:33;;;;;;;8.47;5.33;;;;;;;;;;5043082;28;20202;-83
2022/12/08 02:04:58;;;;;;;6.87;3.77;;;;;;;;;;5050565;28;20199;-82
2022/12/08 02:07:24;;;;;;;6.27;4.20;;;;;;;;;;5047451;28;20190;-82
2022/12/08 02:09:49;;;;;;;5.83;4.20;;;;;;;;;;5050216;28;20227;-83
2022/12/08 02:12:14;;;;;;;7.93;4.77;;;;;;;;;;5041038;28;20232;-83
2022/12/08 02:14:40;;;;;;;7.10;5.03;;;;;;;;;;5044818;28;20180;-83
2022/12/08 02:17:25;;;;;;;7.57;5.47;;;;;;;;;;5044960;28;20207;-83
2022/12/08 02:19:59;;;;;;;7.67;5.00;;;;;;;;;;5050864;28;20183;-83
2022/12/08 02:22:54;;;;;;;10.57;5.00;;;;;;;;;;5052174;28;20194;-84
2022/12/08 02:25:19;;;;;;;7.07;4.20;;;;;;;;;;4966835;28;20236;-83
2022/12/08 02:28:03;;;;;;;5.50;4.37;;;;;;;;;;5051339;28;20183;-83
2022/12/08 02:30:37;;;;;;;7.37;4.70;;;;;;;;;;5039896;28;20416;-82
2022/12/08 02:33:02;;;;;;;7.43;4.70;;;;;;;;;;5047228;28;20185;-83
2022/12/08 02:35:31;;;;;;;5.63;4.33;;;;;;;;;;5042318;28;20236;-83
2022/12/08 02:37:59;;;;;;;7.67;5.13;;;;;;;;;;5049049;28;20210;-82
2022/12/08 02:40:29;;;;;;;7.57;4.77;;;;;;;;;;5049415;28;20214;-82
2022/12/08 02:43:15;;;;;;;6.63;4.53;;;;;;;;;;5050801;28;20275;-82
2022/12/08 02:45:47;;;;;;;6.63;4.43;;;;;;;;;;5049667;28;20188;-82
2022/12/08 02:48:13;;;;;;;7.47;4.23;;;;;;;;;;5049848;28;20210;-82
2022/12/08 02:50:38;;;;;;;8.53;5.17;;;;;;;;;;5044412;28;20185;-82
2022/12/08 02:53:04;;;;;;;6.73;4.57;;;;;;;;;;5049829;28;20174;-81
2022/12/08 02:55:48;;;;;;;6.60;3.93;;;;;;;;;;5046549;28;20220;-81
2022/12/08 02:58:16;;;;;;;6.87;4.13;;;;;;;;;;5050413;28;20215;-81
2022/12/08 03:01:00;;;;;;;6.37;4.50;;;;;;;;;;5048205;28;20180;-81
2022/12/08 03:03:52;;;;;;;6.27;4.03;;;;;;;;;;5048659;28;20174;-82
2022/12/08 03:06:20;;;;;;;7.23;5.47;;;;;;;;;;5046280;28;20191;-81
2022/12/08 03:08:48;;;;;;;8.00;4.70;;;;;;;;;;5043626;28;20267;-81
2022/12/08 03:11:20;;;;;;;7.20;5.10;;;;;;;;;;5046063;28;20288;-81
2022/12/08 03:13:48;;;;;;;11.33;5.40;;;;;;;;;;5050488;28;20179;-81
2022/12/08 03:16:15;;;;;;;7.30;5.43;;;;;;;;;;5050419;28;20193;-81
2022/12/08 03:18:44;;;;;;;7.63;5.20;;;;;;;;;;5047526;28;20194;-81
2022/12/08 03:21:10;;;;;;;6.90;5.43;;;;;;;;;;5050571;28;20186;-81
2022/12/08 03:23:35;;;;;;;7.50;5.10;;;;;;;;;;5050208;28;20172;-80
2022/12/08 03:26:08;;;;;;;9.00;5.27;;;;;;;;;;5050316;28;20171;-81
2022/12/08 03:28:33;;;;;;;8.87;5.97;;;;;;;;;;5044623;28;20181;-81
2022/12/08 03:31:01;;;;;;;6.83;4.70;;;;;;;;;;5043017;28;20226;-80
2022/12/08 03:33:29;;;;;;;8.17;5.00;;;;;;;;;;5049428;28;20265;-80
2022/12/08 03:35:54;;;;;;;13.03;5.73;;;;;;;;;;5064048;28;20171;-80
2022/12/08 03:38:20;;;;;;;8.50;5.60;;;;;;;;;;5050375;28;20200;-80
2022/12/08 03:41:17;;;;;;;7.23;5.20;;;;;;;;;;5042011;28;20183;-80
2022/12/08 03:43:31;;;;;;;6.17;4.40;;;;;;;;;;5048408;28;20185;-79
2022/12/08 03:45:56;;;;;;;8.67;5.50;;;;;;;;;;5048919;28;20272;-79
2022/12/08 03:48:21;;;;;;;11.70;6.40;;;;;;;;;;5046825;28;20270;-79
2022/12/08 03:50:46;;;;;;;6.40;4.30;;;;;;;;;;5047441;28;20229;-79
2022/12/08 03:53:11;;;;;;;10.03;5.70;;;;;;;;;;5049246;28;20233;-79
2022/12/08 03:55:36;;;;;;;8.17;5.90;;;;;;;;;;5050287;28;20162;-79
2022/12/08 03:58:02;;;;;;;6.77;5.03;;;;;;;;;;5046261;28;20178;-79
2022/12/08 04:00:27;;;;;;;8.67;5.93;;;;;;;;;;5050588;28;20175;-79
2022/12/08 04:02:52;;;;;;;8.50;4.93;;;;;;;;;;5045095;28;20265;-79
2022/12/08 04:05:17;;;;;;;8.70;4.93;;;;;;;;;;5042037;28;20186;-79
2022/12/08 04:07:42;;;;;;;9.40;4.93;;;;;;;;;;5048334;28;20170;-79
2022/12/08 04:10:08;;;;;;;8.03;6.00;;;;;;;;;;5048709;28;20180;-79
2022/12/08 04:12:33;;;;;;;7.10;3.93;;;;;;;;;;5044774;28;20295;-78
2022/12/08 04:14:58;;;;;;;8.20;4.80;;;;;;;;;;5044631;28;20186;-79
2022/12/08 04:17:24;;;;;;;7.73;4.93;;;;;;;;;;5045352;28;20199;-79
2022/12/08 04:19:49;;;;;;;7.57;4.63;;;;;;;;;;5047858;28;20277;-78
2022/12/08 04:22:14;;;;;;;12.73;4.87;;;;;;;;;;5048315;28;20214;-78
2022/12/08 04:24:39;;;;;;;5.90;4.33;;;;;;;;;;5046873;28;20221;-78
2022/12/08 04:27:04;;;;;;;6.33;4.77;;;;;;;;;;5046418;28;20185;-78
2022/12/08 04:29:30;;;;;;;6.47;4.73;;;;;;;;;;5045449;28;20209;-79
2022/12/08 04:31:55;;;;;;;6.90;4.30;;;;;;;;;;5033361;28;20432;-78
2022/12/08 04:34:20;;;;;;;7.17;5.13;;;;;;;;;;5032379;28;20186;-79
2022/12/08 04:36:45;;;;;;;7.80;5.23;;;;;;;;;;5032684;28;20517;-78
2022/12/08 04:39:10;;;;;;;5.77;4.57;;;;;;;;;;5036532;28;20190;-78
2022/12/08 04:41:36;;;;;;;8.87;5.10;;;;;;;;;;5044740;28;20183;-78
2022/12/08 04:44:01;;;;;;;7.50;4.57;;;;;;;;;;5032488;28;20167;-79
2022/12/08 04:46:26;;;;;;;8.30;5.60;;;;;;;;;;5030438;28;20325;-78
2022/12/08 04:48:51;;;;;;;7.90;4.13;;;;;;;;;;5030200;28;20183;-78
2022/12/08 04:51:18;;;;;;;6.20;4.63;;;;;;;;;;5031236;28;20195;-78
2022/12/08 04:53:44;;;;;;;7.77;5.43;;;;;;;;;;5036148;28;20166;-78
2022/12/08 04:56:13;;;;;;;7.93;4.93;;;;;;;;;;5033345;28;20178;-78
2022/12/08 04:58:38;;;;;;;6.63;4.63;;;;;;;;;;5025776;28;20170;-78
2022/12/08 05:01:04;;;;;;;8.63;4.90;;;;;;;;;;5029779;28;20190;-78
2022/12/08 05:03:29;;;;;;;8.10;5.70;;;;;;;;;;5037515;28;20186;-78
2022/12/08 05:05:54;;;;;;;8.20;5.03;;;;;;;;;;5034184;28;20180;-78
2022/12/08 05:08:20;;;;;;;8.40;5.13;;;;;;;;;;5034635;28;20277;-77
2022/12/08 05:10:45;;;;;;;7.87;5.53;;;;;;;;;;5032463;28;20178;-77
2022/12/08 05:13:10;;;;;;;8.40;4.80;;;;;;;;;;5036858;28;20584;-77
2022/12/08 05:15:35;;;;;;;11.13;5.57;;;;;;;;;;5032625;28;20167;-78
2022/12/08 05:18:00;;;;;;;8.23;5.23;;;;;;;;;;5038785;28;20226;-78
2022/12/08 05:20:29;;;;;;;9.33;5.80;;;;;;;;;;5026317;28;20246;-77
2022/12/08 05:22:54;;;;;;;10.00;5.20;;;;;;;;;;5033010;28;20205;-77
2022/12/08 05:25:19;;;;;;;8.57;5.30;;;;;;;;;;5027832;28;20183;-77
2022/12/08 05:27:44;;;;;;;7.17;4.80;;;;;;;;;;5028617;28;20191;-77
2022/12/08 05:30:10;;;;;;;8.17;4.93;;;;;;;;;;5033507;28;20261;-77
2022/12/08 05:32:35;;;;;;;5.63;4.50;;;;;;;;;;5047206;28;20290;-77
2022/12/08 05:35:00;;;;;;;7.23;4.90;;;;;;;;;;5045685;28;20175;-77
2022/12/08 05:37:25;;;;;;;7.97;5.63;;;;;;;;;;5062395;28;20237;-78
2022/12/08 05:39:51;;;;;;;8.40;5.40;;;;;;;;;;5042313;28;20197;-77
2022/12/08 05:42:16;;;;;;;11.07;5.37;;;;;;;;;;5038503;28;20178;-77
2022/12/08 05:44:41;;;;;;;9.00;6.37;;;;;;;;;;5051996;28;20173;-77
2022/12/08 05:47:06;;;;;;;15.80;11.37;;;;;;;;;;5047284;28;20217;-77
2022/12/08 05:49:31;;;;;;;15.67;10.43;;;;;;;;;;5045260;28;20186;-77
2022/12/08 05:51:57;;;;;;;12.10;7.73;;;;;;;;;;5046511;28;20213;-77
2022/12/08 05:54:22;;;;;;;16.30;11.83;;;;;;;;;;5044355;28;20170;-77
2022/12/08 05:56:48;;;;;;;8.83;6.37;;;;;;;;;;5047175;28;20170;-77
2022/12/08 05:59:13;;;;;;;6.93;4.90;;;;;;;;;;5043026;28;20424;-77
2022/12/08 06:01:38;;;;;;;7.37;5.00;;;;;;;;;;5044688;28;20195;-77
2022/12/08 06:04:03;;;;;;;6.40;5.20;;;;;;;;;;5063776;28;20186;-77
2022/12/08 06:06:29;;;;;;;5.87;4.60;;;;;;;;;;5041596;28;20175;-77
2022/12/08 06:08:55;;;;;;;7.67;4.97;;;;;;;;;;5041048;28;20174;-77
2022/12/08 06:11:24;;;;;;;5.03;4.37;;;;;;;;;;5041769;28;20296;-77
2022/12/08 06:13:49;;;;;;;9.37;4.50;;;;;;;;;;5043271;28;20273;-86
2022/12/08 06:16:15;;;;;;;7.20;4.43;;;;;;;;;;5046855;28;20182;-86
2022/12/08 06:18:40;;;;;;;6.17;4.30;;;;;;;;;;5043465;28;20195;-85
2022/12/08 06:21:06;;;;;;;5.67;4.10;;;;;;;;;;5047932;28;20214;-85
2022/12/08 06:23:31;;;;;;;5.43;4.17;;;;;;;;;;5053140;28;20182;-84
2022/12/08 06:26:07;;;;;;;7.23;4.93;;;;;;;;;;5043258;28;20182;-84
2022/12/08 06:28:33;;;;;;;40.07;17.27;;;;;;;;;;5044145;28;20204;-84
2022/12/08 06:30:59;;;;;;;7.07;4.77;;;;;;;;;;5046688;28;20225;-84
2022/12/08 06:33:24;;;;;;;8.37;5.23;;;;;;;;;;5044077;28;20187;-85
2022/12/08 06:35:50;;;;;;;7.13;4.53;;;;;;;;;;5045922;28;20175;-85
2022/12/08 06:38:15;;;;;;;5.57;4.90;;;;;;;;;;5047543;28;20183;-83
2022/12/08 06:40:40;;;;;;;8.30;6.00;;;;;;;;;;5043831;28;20171;-83
2022/12/08 06:43:05;;;;;;;5.57;4.33;;;;;;;;;;5041459;28;20181;-83
2022/12/08 06:45:30;;;;;;;6.10;4.50;;;;;;;;;;5044245;28;20187;-82
2022/12/08 06:47:56;;;;;;;7.07;4.50;;;;;;;;;;5046114;28;20179;-83
2022/12/08 06:50:21;;;;;;;5.80;4.03;;;;;;;;;;5044025;28;20189;-83
2022/12/08 06:52:46;;;;;;;5.50;4.07;;;;;;;;;;5051176;28;20206;-81
2022/12/08 06:55:11;;;;;;;8.13;5.87;;;;;;;;;;5043970;28;20185;-83
2022/12/08 06:57:37;;;;;;;7.07;4.93;;;;;;;;;;5045311;28;20194;-83
2022/12/08 07:00:03;;;;;;;7.20;5.70;;;;;;;;;;5045242;28;20269;-83
2022/12/08 07:02:28;;;;;;;5.80;5.00;;;;;;;;;;5046554;28;20179;-83
2022/12/08 07:04:53;;;;;;;8.77;6.87;;;;;;;;;;5045007;28;20502;-83
2022/12/08 07:07:19;;;;;;;9.73;5.23;;;;;;;;;;5050082;28;20178;-82
2022/12/08 07:09:44;;;;;;;15.87;9.80;;;;;;;;;;5047823;28;20266;-83
2022/12/08 07:12:09;;;;;;;8.97;6.03;;;;;;;;;;5050269;28;20196;-83
2022/12/08 07:14:34;;;;;;;8.30;5.80;;;;;;;;;;5047803;28;20167;-83
2022/12/08 07:17:01;;;;;;;6.40;5.40;;;;;;;;;;5046077;28;20217;-83
2022/12/08 07:19:26;;;;;;;8.53;6.30;;;;;;;;;;5043215;28;20444;-83
2022/12/08 07:21:51;;;;;;;8.00;6.37;;;;;;;;;;5054029;28;20220;-83
2022/12/08 07:24:16;;;;;;;7.30;5.30;;;;;;;;;;5047467;28;20217;-83
2022/12/08 07:26:42;;;;;;;8.73;5.73;;;;;;;;;;5046674;28;20275;-84
2022/12/08 07:29:08;;;;;;;9.07;5.63;;;;;;;;;;5048021;28;20193;-84
2022/12/08 07:31:33;;;;;;;7.67;5.67;;;;;;;;;;5047588;28;20218;-84
2022/12/08 07:33:59;;;;;;;7.63;5.50;;;;;;;;;;5048322;28;20244;-84
2022/12/08 07:36:24;;;;;;;7.20;5.27;;;;;;;;;;5049135;28;20191;-84
2022/12/08 07:38:51;;;;;;;8.93;5.97;;;;;;;;;;5045284;28;20182;-84
2022/12/08 07:41:18;;;;;;;9.37;5.37;;;;;;;;;;5040298;28;20347;-84
2022/12/08 07:43:44;;;;;;;7.43;4.97;;;;;;;;;;5042665;28;20179;-84
2022/12/08 07:46:13;;;;;;;7.27;5.10;;;;;;;;;;5043863;28;20194;-84
2022/12/08 07:48:38;;;;;;;7.03;5.03;;;;;;;;;;5067999;28;20178;-84
2022/12/08 07:51:04;;;;;;;6.67;4.50;;;;;;;;;;5051608;28;20259;-84
2022/12/08 07:53:30;;;;;;;5.10;3.97;;;;;;;;;;5067778;28;20178;-85
2022/12/08 07:55:55;;;;;;;8.23;5.00;;;;;;;;;;5049825;28;20178;-85
2022/12/08 07:58:20;;;;;;;6.17;4.47;;;;;;;;;;5047429;28;20196;-84
2022/12/08 08:00:46;;;;;;;7.73;5.23;;;;;;;;;;5045789;28;20176;-84
2022/12/08 08:03:11;;;;;;;7.73;5.33;;;;;;;;;;5048815;28;20205;-84
2022/12/08 08:05:36;;;;;;;8.63;5.60;;;;;;;;;;5044568;28;20186;-85
2022/12/08 08:08:02;;;;;;;5.13;4.60;;;;;;;;;;5046120;28;20197;-85
2022/12/08 08:10:27;;;;;;;6.07;5.00;;;;;;;;;;5045604;28;20358;-85
2022/12/08 08:12:52;;;;;;;6.07;3.40;;;;;;;;;;5064725;28;20198;-86
2022/12/08 08:15:19;;;;;;;6.07;4.47;;;;;;;;;;5046846;28;20171;-85
2022/12/08 08:17:47;;;;;;;5.30;4.27;;;;;;;;;;5042862;28;20222;-85
2022/12/08 08:20:13;;;;;;;4.93;4.37;;;;;;;;;;5046255;28;20209;-85
2022/12/08 08:22:38;;;;;;;6.20;4.47;;;;;;;;;;5048454;28;20179;-85
2022/12/08 08:25:04;;;;;;;4.57;3.57;;;;;;;;;;5047080;28;20263;-86
2022/12/08 08:27:29;;;;;;;6.03;4.27;;;;;;;;;;5054551;28;20183;-85
2022/12/08 08:29:54;;;;;;;5.23;3.97;;;;;;;;;;5039687;28;20524;-85
2022/12/08 08:32:20;;;;;;;11.13;6.37;;;;;;;;;;5011536;28;20219;-86
2022/12/08 08:34:45;;;;;;;9.80;7.67;;;;;;;;;;5005595;28;20212;-85
2022/12/08 08:37:10;;;;;;;5.60;4.43;;;;;;;;;;5009742;28;20236;-84
2022/12/08 08:39:36;;;;;;;38.00;21.47;;;;;;;;;;5011637;28;20259;-85
2022/12/08 08:42:01;;;;;;;7.33;4.90;;;;;;;;;;5006351;28;20271;-85
2022/12/08 08:44:26;;;;;;;7.23;6.53;;;;;;;;;;5011373;28;20179;-85
2022/12/08 08:46:51;;;;;;;7.83;4.60;;;;;;;;;;5004926;28;20186;-85
2022/12/08 08:49:17;;;;;;;6.80;4.30;;;;;;;;;;5010988;28;20191;-86
2022/12/08 08:51:43;;;;;;;8.03;7.23;;;;;;;;;;5009549;28;20196;-86
2022/12/08 08:54:08;;;;;;;6.33;4.60;;;;;;;;;;5007299;28;20220;-86
2022/12/08 08:56:33;;;;;;;7.97;4.67;;;;;;;;;;5015035;28;20211;-86
2022/12/08 08:58:58;;;;;;;4.30;3.63;;;;;;;;;;5003138;28;20196;-85
2022/12/08 09:01:26;;;;;;;8.70;4.47;;;;;;;;;;5008787;28;20188;-86
2022/12/08 09:03:51;;;;;;;5.63;4.50;;;;;;;;;;5007039;28;20196;-86
2022/12/08 09:06:17;;;;;;;6.43;4.67;;;;;;;;;;5010988;28;20191;-86
2022/12/08 09:08:43;;;;;;;5.67;3.87;;;;;;;;;;5006904;28;20171;-86
2022/12/08 09:11:08;;;;;;;4.13;3.33;;;;;;;;;;5012538;28;20422;-86
2022/12/08 09:13:34;;;;;;;6.87;4.20;;;;;;;;;;5005817;28;20229;-87
2022/12/08 09:16:00;;;;;;;6.80;4.83;;;;;;;;;;5005793;28;20180;-87
2022/12/08 09:18:26;;;;;;;6.37;4.43;;;;;;;;;;5022301;28;20200;-87
2022/12/08 09:20:51;;;;;;;5.80;4.53;;;;;;;;;;5001631;28;20316;-86
2022/12/08 09:23:16;;;;;;;6.47;4.13;;;;;;;;;;5004531;28;20187;-87
2022/12/08 09:25:45;;;;;;;7.33;4.73;;;;;;;;;;5011244;28;20182;-87
2022/12/08 09:28:11;;;;;;;8.27;5.47;;;;;;;;;;5006629;28;20167;-87
2022/12/08 09:30:36;;;;;;;7.10;5.30;;;;;;;;;;5021373;28;20226;-88
2022/12/08 09:33:02;;;;;;;5.83;4.37;;;;;;;;;;5047248;28;20218;-87
2022/12/08 09:35:28;;;;;;;7.97;4.73;;;;;;;;;;5042322;28;20208;-87
2022/12/08 09:37:53;;;;;;;6.47;5.80;;;;;;;;;;5045792;28;20187;-87
2022/12/08 09:40:20;;;;;;;6.10;4.63;;;;;;;;;;5047201;28;20234;-88
2022/12/08 09:42:48;;;;;;;7.87;4.70;;;;;;;;;;5043407;28;20346;-88
2022/12/08 09:45:15;;;;;;;5.43;4.30;;;;;;;;;;5044886;28;20187;-88
2022/12/08 09:47:58;;;;;;;7.87;3.57;;;;;;;;;;5038750;28;20290;-88
2022/12/08 09:50:29;;;;;;;7.03;3.80;;;;;;;;;;5044099;28;20454;-88
2022/12/08 09:52:55;;;;;;;4.70;3.70;;;;;;;;;;5045070;28;20218;-89
2022/12/08 09:55:23;;;;;;;5.50;3.90;;;;;;;;;;5045607;28;20176;-88
2022/12/08 09:57:56;;;;;;;4.67;3.40;;;;;;;;;;5046684;28;20176;-87
2022/12/08 10:00:22;;;;;;;6.03;4.13;;;;;;;;;;5039060;28;20183;-85
2022/12/08 10:02:47;;;;;;;6.23;4.13;;;;;;;;;;5040908;28;20279;-84
2022/12/08 10:05:13;;;;;;;5.30;4.10;;;;;;;;;;5046752;28;20180;-83
2022/12/08 10:07:52;;;;;;;4.87;3.47;;;;;;;;;;5043303;28;20274;-83
2022/12/08 10:10:21;;;;;;;3.87;2.30;;;;;;;;;;5041668;28;20447;-83
2022/12/08 10:12:58;;;;;;;4.43;2.97;;;;;;;;;;5043365;28;20209;-83
2022/12/08 10:15:42;;;;;;;3.23;2.73;;;;;;;;;;5043102;28;20178;-82
2022/12/08 10:18:14;;;;;;;3.67;2.60;;;;;;;;;;5041553;28;20201;-82
2022/12/08 10:20:43;;;;;;;1.60;1.50;;;;;;;;;;5041364;28;20256;-82
2022/12/08 10:23:12;;;;;;;3.40;2.70;;;;;;;;;;5049535;28;20201;-82
2022/12/08 10:25:40;;;;;;;2.50;2.17;;;;;;;;;;5051769;28;20181;-81
2022/12/08 10:28:07;;;;;;;2.87;2.23;;;;;;;;;;5045023;28;20278;-81
2022/12/08 10:30:32;;;;;;;3.63;2.40;;;;;;;;;;5049630;28;20237;-81
2022/12/08 10:32:58;;;;;;;4.80;2.97;;;;;;;;;;5044124;28;20224;-81
2022/12/08 10:35:24;;;;;;;4.07;3.00;;;;;;;;;;5049539;28;20198;-81
2022/12/08 10:37:59;;;;;;;5.23;3.23;;;;;;;;;;5051473;28;20201;-80
2022/12/08 10:40:33;;;;;;;4.67;3.07;;;;;;;;;;5046939;28;20175;-81
2022/12/08 10:42:58;;;;;;;3.03;2.77;;;;;;;;;;5047681;28;20189;-81
2022/12/08 10:45:44;;;;;;;6.47;2.80;;;;;;;;;;5050081;28;20277;-81
2022/12/08 10:48:15;;;;;;;3.33;2.30;;;;;;;;;;5042501;28;20247;-80
2022/12/08 10:50:42;;;;;;;2.87;2.17;;;;;;;;;;5048211;28;20182;-80
2022/12/08 10:53:07;;;;;;;4.13;2.30;;;;;;;;;;5048600;28;20202;-81
2022/12/08 10:55:40;;;;;;;6.13;2.27;;;;;;;;;;5047999;28;20194;-80
2022/12/08 10:58:21;;;;;;;2.73;2.33;;;;;;;;;;5050965;28;20186;-80
2022/12/08 11:00:46;;;;;;;5.17;3.87;;;;;;;;;;5048694;28;20189;-80
2022/12/08 11:03:20;;;;;;;3.97;2.73;;;;;;;;;;5049202;28;20183;-80
2022/12/08 11:05:45;;;;;;;5.80;3.03;;;;;;;;;;5050162;28;20221;-80
2022/12/08 11:08:10;;;;;;;9.17;6.27;;;;;;;;;;5042383;28;20208;-79
2022/12/08 11:10:41;;;;;;;3.70;2.90;;;;;;;;;;5049949;28;20212;-80
2022/12/08 11:13:20;;;;;;;4.70;2.70;;;;;;;;;;5048409;28;20240;-80
2022/12/08 11:15:45;;;;;;;3.40;2.90;;;;;;;;;;5046719;28;20458;-79
2022/12/08 11:18:21;;;;;;;7.87;3.97;;;;;;;;;;5041312;28;20228;-79
2022/12/08 11:20:54;;;;;;;6.13;5.53;;;;;;;;;;5049298;28;20197;-80
2022/12/08 11:23:20;;;;;;;7.33;5.60;;;;;;;;;;5054213;28;20180;-79
2022/12/08 11:25:46;;;;;;;5.27;4.27;;;;;;;;;;5047675;28;20183;-79
2022/12/08 11:28:12;;;;;;;4.83;3.33;;;;;;;;;;5045295;28;20272;-79
2022/12/08 11:30:38;;;;;;;3.97;3.43;;;;;;;;;;5043836;28;20300;-79
2022/12/08 11:33:22;;;;;;;3.77;3.20;;;;;;;;;;5046409;28;20240;-79
2022/12/08 11:36:08;;;;;;;7.43;3.03;;;;;;;;;;5040418;28;20170;-79
2022/12/08 11:38:39;;;;;;;2.87;2.50;;;;;;;;;;5046459;28;20174;-79
2022/12/08 11:41:07;;;;;;;3.13;2.60;;;;;;;;;;5049426;28;20231;-79
2022/12/08 11:43:32;;;;;;;3.40;2.80;;;;;;;;;;5046638;28;20220;-79
2022/12/08 11:45:59;;;;;;;2.90;2.53;;;;;;;;;;5041001;28;20182;-79
2022/12/08 11:48:36;;;;;;;3.43;3.03;;;;;;;;;;5045303;28;20186;-79
2022/12/08 11:51:12;;;;;;;3.50;2.67;;;;;;;;;;5049046;28;20181;-78
2022/12/08 11:53:42;;;;;;;5.63;3.40;;;;;;;;;;5052420;28;20173;-79
2022/12/08 11:56:12;;;;;;;5.03;3.50;;;;;;;;;;5046413;28;20181;-79
2022/12/08 11:58:40;;;;;;;2.80;2.60;;;;;;;;;;5044855;28;20175;-79
2022/12/08 12:01:12;;;;;;;3.57;3.00;;;;;;;;;;5046515;28;20772;-81
2022/12/08 12:03:40;;;;;;;3.37;2.77;;;;;;;;;;5045134;28;20206;-81
2022/12/08 12:06:24;;;;;;;2.97;2.53;;;;;;;;;;5046337;28;20245;-80
2022/12/08 12:08:49;;;;;;;4.37;3.23;;;;;;;;;;5046947;28;20268;-81
2022/12/08 12:12:11;;;;;;;3.00;2.47;;;;;;;;;;5039282;28;20289;-80
2022/12/08 12:14:16;;;;;;;3.53;2.73;;;;;;;;;;5049158;28;20184;-81
2022/12/08 12:16:54;;;;;;;3.27;2.50;;;;;;;;;;5048206;28;20181;-81
2022/12/08 12:19:20;;;;;;;2.90;2.60;;;;;;;;;;5045828;28;20183;-81
2022/12/08 12:21:55;;;;;;;5.23;4.03;;;;;;;;;;5051976;28;20217;-81
2022/12/08 12:24:23;;;;;;;12.47;4.20;;;;;;;;;;5044582;28;20670;-81
2022/12/08 12:27:00;;;;;;;4.40;4.00;;;;;;;;;;5045860;28;20179;-81
2022/12/08 12:29:28;;;;;;;4.47;4.07;;;;;;;;;;5046587;28;20177;-81
2022/12/08 12:31:58;;;;;;;4.20;3.37;;;;;;;;;;5045069;28;20272;-81
2022/12/08 12:34:29;;;;;;;3.73;3.13;;;;;;;;;;5044231;28;20489;-82
2022/12/08 12:37:02;;;;;;;4.10;2.90;;;;;;;;;;5042602;28;20196;-81
2022/12/08 12:39:29;;;;;;;2.93;2.47;;;;;;;;;;5053998;28;20178;-81
2022/12/08 12:41:56;;;;;;;3.73;3.10;;;;;;;;;;5045126;28;20178;-81
2022/12/08 12:44:28;;;;;;;4.13;2.60;;;;;;;;;;5042882;28;20194;-80
2022/12/08 12:46:58;;;;;;;6.60;3.90;;;;;;;;;;5046518;28;20186;-81
2022/12/08 12:49:38;;;;;;;3.67;2.80;;;;;;;;;;5046251;28;20188;-81
2022/12/08 12:52:23;;;;;;;22.90;10.87;;;;;;;;;;5038063;28;20204;-81
2022/12/08 12:54:49;;;;;;;3.80;2.83;;;;;;;;;;5045159;28;20231;-81
2022/12/08 12:57:17;;;;;;;8.02;6.18;;;;;;;;;;5064857;28;20182;-80
2022/12/08 12:59:43;;;;;;;3.87;3.07;;;;;;;;;;5048608;28;20288;-81
2022/12/08 13:02:15;;;;;;;4.07;3.63;;;;;;;;;;5041460;28;20182;-81
2022/12/08 13:04:51;;;;;;;9.07;3.90;;;;;;;;;;5045937;28;20205;-80
2022/12/08 13:07:21;;;;;;;3.33;3.03;;;;;;;;;;5063147;28;20186;-81
2022/12/08 13:09:54;;;;;;;3.50;2.87;;;;;;;;;;5046545;28;20182;-81
2022/12/08 13:12:22;;;;;;;31.10;6.27;;;;;;;;;;5046387;28;20202;-81
2022/12/08 13:14:51;;;;;;;4.10;3.40;;;;;;;;;;5044000;28;20266;-81
2022/12/08 13:17:25;;;;;;;5.30;2.87;;;;;;;;;;5046353;28;20236;-81
2022/12/08 13:19:53;;;;;;;4.67;2.60;;;;;;;;;;5043443;28;20178;-81
2022/12/08 13:22:37;;;;;;;11.43;2.90;;;;;;;;;;5046522;28;20200;-81
2022/12/08 13:25:38;;;;;;;2.73;2.50;;;;;;;;;;5048244;28;20170;-80
2022/12/08 13:28:18;;;;;;;10.67;3.50;;;;;;;;;;4986745;28;20528;-80
2022/12/08 13:30:46;;;;;;;3.20;2.63;;;;;;;;;;4985048;28;20235;-80
2022/12/08 13:33:16;;;;;;;2.70;2.50;;;;;;;;;;4971358;28;20204;-81
2022/12/08 13:35:45;;;;;;;3.60;2.53;;;;;;;;;;4969349;28;20184;-80
2022/12/08 13:38:14;;;;;;;3.43;2.70;;;;;;;;;;4970305;28;20184;-81
2022/12/08 13:40:40;;;;;;;3.17;2.87;;;;;;;;;;4981243;28;20180;-80
2022/12/08 13:43:24;;;;;;;4.27;2.57;;;;;;;;;;4987308;28;20191;-80
2022/12/08 13:45:49;;;;;;;2.50;2.30;;;;;;;;;;4985517;28;20188;-81
2022/12/08 13:48:20;;;;;;;4.27;2.77;;;;;;;;;;4970132;28;20234;-81
2022/12/08 13:50:46;;;;;;;5.93;3.53;;;;;;;;;;4981970;28;20194;-80
2022/12/08 13:53:15;;;;;;;2.53;2.20;;;;;;;;;;4971684;28;20204;-80
2022/12/08 13:55:49;;;;;;;2.90;2.37;;;;;;;;;;4968741;28;20180;-81
2022/12/08 13:58:15;;;;;;;3.17;2.40;;;;;;;;;;4985524;28;20226;-80
2022/12/08 14:00:40;;;;;;;4.17;2.60;;;;;;;;;;4985628;28;20172;-80
2022/12/08 14:03:10;;;;;;;2.23;1.97;;;;;;;;;;5041043;28;20197;-81
2022/12/08 14:05:41;;;;;;;2.70;1.83;;;;;;;;;;5048445;28;20178;-81
2022/12/08 14:08:15;;;;;;;6.20;3.50;;;;;;;;;;5065037;28;20178;-81
2022/12/08 14:10:40;;;;;;;2.43;2.23;;;;;;;;;;5047061;28;20183;-80
2022/12/08 14:13:09;;;;;;;5.60;3.67;;;;;;;;;;5052230;28;20197;-81
2022/12/08 14:15:34;;;;;;;2.53;2.30;;;;;;;;;;5050201;28;20182;-80
2022/12/08 14:18:00;;;;;;;6.83;2.50;;;;;;;;;;5048467;28;20772;-78
2022/12/08 14:20:27;;;;;;;3.20;2.33;;;;;;;;;;5044399;28;20197;-79
2022/12/08 14:22:52;;;;;;;3.60;2.97;;;;;;;;;;5064055;28;20231;-79
2022/12/08 14:25:18;;;;;;;3.03;2.57;;;;;;;;;;5051265;28;20261;-79
2022/12/08 14:27:44;;;;;;;4.27;3.00;;;;;;;;;;5054888;28;20178;-79
2022/12/08 14:30:15;;;;;;;3.77;2.63;;;;;;;;;;5044060;28;20205;-79
2022/12/08 14:32:40;;;;;;;3.53;2.83;;;;;;;;;;5014276;28;20260;-78
2022/12/08 14:35:05;;;;;;;3.45;3.03;;;;;;;;;;5011887;28;20218;-79
2022/12/08 14:37:31;;;;;;;7.90;3.90;;;;;;;;;;5018908;28;20191;-79
2022/12/08 14:40:00;;;;;;;7.27;5.10;;;;;;;;;;5028914;28;20320;-79
2022/12/08 14:42:26;;;;;;;6.30;5.17;;;;;;;;;;5027391;28;20191;-79
2022/12/08 14:44:56;;;;;;;8.07;6.00;;;;;;;;;;5008138;28;20185;-79
2022/12/08 14:47:21;;;;;;;5.63;4.87;;;;;;;;;;5011369;28;20446;-79
2022/12/08 14:49:47;;;;;;;7.97;4.53;;;;;;;;;;5010829;28;20190;-79
2022/12/08 14:52:12;;;;;;;9.67;6.70;;;;;;;;;;5011535;28;20266;-79
2022/12/08 14:54:38;;;;;;;5.03;4.33;;;;;;;;;;5009321;28;20290;-79
2022/12/08 14:57:04;;;;;;;11.60;5.63;;;;;;;;;;5011164;28;20213;-79